Time;durP1;ratioP1;P1;durP2;ratioP2;P2;SDS_P1;SDS_P2;PMS_P1;PMS_P2;Temp;Humidity;BMP_temperature;BMP_pressure;BME280_temperature;BME280_humidity;BME280_pressure;Samples;Min_cycle;Max_cycle;Signal;HPM_P1;HPM_P2
2023/10/28 00:04:19;;;;;;;0.50;0.35;;;;;;;10.87;80.56;99174.06;15713475;28;20041;-47
2023/10/28 00:11:53;;;;;;;;;;;;;;;10.72;80.75;99170.13;15718042;28;20036;-46
2023/10/28 00:19:46;;;;;;;0.32;0.28;;;;;;;10.69;80.68;99167.13;15701871;28;19929;-46
2023/10/28 00:27:24;;;;;;;0.05;0.03;;;;;;;10.61;82.04;99172.94;15713163;28;20040;-46
2023/10/28 00:34:59;;;;;;;1.75;0.45;;;;;;;10.33;81.05;99106.84;15690584;28;20049;-49
2023/10/28 00:42:35;;;;;;;0.40;0.40;;;;;;;10.60;81.83;99172.13;15717112;28;20044;-47
2023/10/28 00:50:12;;;;;;;0.47;0.47;;;;;;;10.62;80.98;99178.03;15719810;28;20077;-47
2023/10/28 00:57:47;;;;;;;0.75;0.75;;;;;;;10.94;80.04;99182.72;15719093;28;20060;-47
2023/10/28 01:05:22;;;;;;;1.02;0.85;;;;;;;10.39;82.15;99175.56;15716119;28;20033;-46
2023/10/28 01:12:59;;;;;;;1.00;0.63;;;;;;;10.75;81.07;99170.69;15725094;28;20041;-48
2023/10/28 01:20:33;;;;;;;0.60;0.60;;;;;;;10.94;80.26;99172.00;15703206;28;20315;-46
2023/10/28 01:28:09;;;;;;;0.43;0.32;;;;;;;10.67;81.36;99177.28;15733005;28;20090;-48
2023/10/28 01:35:42;;;;;;;0.32;0.30;;;;;;;10.56;82.11;99173.66;15714663;28;20139;-47
2023/10/28 01:43:16;;;;;;;0.55;0.55;;;;;;;10.89;80.85;99171.94;15727216;28;20128;-47
2023/10/28 01:50:50;;;;;;;0.00;0.00;;;;;;;10.87;81.18;99169.50;15682869;28;20585;-46
2023/10/28 01:58:32;;;;;;;0.38;0.35;;;;;;;10.94;80.66;99178.16;15725145;28;20131;-50
2023/10/28 02:06:08;;;;;;;0.03;0.03;;;;;;;10.81;81.52;99170.50;15730356;28;20326;-48
2023/10/28 02:13:43;;;;;;;0.45;0.45;;;;;;;11.01;80.75;99167.25;15715395;28;20030;-48
2023/10/28 02:21:20;;;;;;;0.73;0.57;;;;;;;10.81;81.60;99167.81;15714885;28;20068;-48
2023/10/28 02:28:56;;;;;;;0.38;0.38;;;;;;;10.96;80.55;99176.06;15731090;28;20119;-44
2023/10/28 02:36:30;;;;;;;1.10;0.75;;;;;;;11.07;80.99;99182.34;15721426;28;20044;-45
2023/10/28 02:44:05;;;;;;;0.32;0.32;;;;;;;11.03;80.63;99186.59;15702775;28;20452;-46
2023/10/28 02:51:39;;;;;;;0.00;0.00;;;;;;;11.13;80.63;99188.56;15710131;28;20409;-47
2023/10/28 02:59:13;;;;;;;1.33;1.23;;;;;;;11.41;79.10;99184.84;15726233;28;20041;-45
2023/10/28 03:06:47;;;;;;;0.00;0.00;;;;;;;10.97;80.51;99196.47;15696534;28;20047;-46
2023/10/28 03:14:22;;;;;;;0.82;0.40;;;;;;;11.30;79.36;99192.00;15709366;28;20083;-46
2023/10/28 03:21:55;;;;;;;8.23;3.13;;;;;;;11.15;79.59;99202.56;15704332;28;20094;-47
2023/10/28 03:29:31;;;;;;;0.30;0.30;;;;;;;11.44;79.29;99211.22;15733561;28;20493;-51
2023/10/28 03:37:08;;;;;;;3.28;0.80;;;;;;;11.33;79.52;99210.31;15715742;28;20048;-46
2023/10/28 03:44:43;;;;;;;0.43;0.30;;;;;;;10.98;80.40;99216.88;15718255;28;20050;-48
2023/10/28 03:52:16;;;;;;;0.75;0.43;;;;;;;11.28;79.76;99217.47;15718124;28;20072;-48
2023/10/28 03:59:51;;;;;;;;;;;;;;;11.22;80.18;99222.78;15694592;28;20048;-48
2023/10/28 04:07:25;;;;;;;0.75;0.75;;;;;;;11.30;80.25;99212.69;15717610;28;19920;-47
2023/10/28 04:15:00;;;;;;;0.43;0.20;;;;;;;11.33;80.13;99231.78;15706029;28;20128;-47
2023/10/28 04:22:33;;;;;;;3.28;1.42;;;;;;;11.27;80.77;99242.72;15699467;28;20075;-48
2023/10/28 04:30:10;;;;;;;1.15;0.93;;;;;;;11.04;81.75;99244.59;15713586;28;20493;-46
2023/10/28 04:37:45;;;;;;;0.50;0.50;;;;;;;11.04;82.47;99252.66;15707362;28;20561;-47
2023/10/28 04:45:21;;;;;;;;;;;;;;;11.10;81.93;99257.03;15700548;28;20037;-48
2023/10/28 04:52:54;;;;;;;1.80;0.45;;;;;;;11.45;80.75;99259.31;15715621;28;19981;-51
2023/10/28 05:00:30;;;;;;;0.70;0.70;;;;;;;11.20;81.45;99267.09;15716631;28;20048;-45
2023/10/28 05:08:04;;;;;;;0.50;0.50;;;;;;;10.94;82.07;99256.00;15710129;28;20127;-48
2023/10/28 05:15:39;;;;;;;1.73;0.63;;;;;;;11.21;81.25;99255.28;15723352;28;20144;-46
2023/10/28 05:23:14;;;;;;;0.80;0.80;;;;;;;11.41;80.15;99268.94;15714681;28;20481;-46
2023/10/28 05:30:48;;;;;;;0.25;0.25;;;;;;;11.11;80.63;99301.63;15705823;28;20045;-48
2023/10/28 05:38:21;;;;;;;0.22;0.22;;;;;;;11.46;79.06;99293.16;15722061;28;20044;-46
2023/10/28 05:45:56;;;;;;;0.10;0.10;;;;;;;11.41;79.10;99311.91;15724883;28;20444;-45
2023/10/28 05:53:31;;;;;;;0.00;0.00;;;;;;;11.09;79.96;99329.78;15722626;28;20105;-47
2023/10/28 06:01:09;;;;;;;0.00;0.00;;;;;;;10.79;80.75;99340.91;15715135;28;20040;-45
2023/10/28 06:08:42;;;;;;;0.15;0.15;;;;;;;10.73;80.59;99345.38;15707421;28;20131;-48
2023/10/28 06:16:18;;;;;;;0.13;0.13;;;;;;;11.08;79.83;99365.75;15711663;28;20516;-46
2023/10/28 06:23:52;;;;;;;0.00;0.00;;;;;;;11.31;78.67;99367.41;15714351;28;20058;-48
2023/10/28 06:31:27;;;;;;;0.00;0.00;;;;;;;11.28;78.30;99381.31;15720740;28;20394;-45
2023/10/28 06:39:00;;;;;;;0.00;0.00;;;;;;;11.47;78.08;99390.72;15716418;28;20095;-47
2023/10/28 06:46:34;;;;;;;0.00;0.00;;;;;;;11.52;77.99;99401.53;15716907;28;20284;-47
2023/10/28 06:54:11;;;;;;;0.00;0.00;;;;;;;11.32;78.12;99423.56;15716107;28;20040;-46
2023/10/28 07:01:45;;;;;;;0.13;0.13;;;;;;;11.42;77.67;99431.78;15717186;28;20041;-48
2023/10/28 07:09:20;;;;;;;0.10;0.10;;;;;;;11.15;79.07;99438.91;15722910;28;20095;-46
2023/10/28 07:16:55;;;;;;;0.00;0.00;;;;;;;11.50;78.11;99447.47;15722825;28;20419;-51
2023/10/28 07:24:30;;;;;;;0.00;0.00;;;;;;;11.37;80.43;99460.44;15708584;28;20110;-44
2023/10/28 07:32:06;;;;;;;0.17;0.17;;;;;;;11.07;82.96;99460.78;15704977;28;20047;-47
2023/10/28 07:39:41;;;;;;;0.35;0.30;;;;;;;11.18;82.49;99463.38;15707810;28;20069;-44
2023/10/28 07:47:16;;;;;;;0.03;0.03;;;;;;;12.02;80.23;99480.41;15709079;28;20051;-46
2023/10/28 07:54:50;;;;;;;0.28;0.28;;;;;;;11.74;81.02;99488.34;15717201;28;20044;-47
2023/10/28 08:02:24;;;;;;;0.10;0.10;;;;;;;11.47;81.69;99499.03;15724887;28;20142;-51
2023/10/28 08:10:00;;;;;;;0.00;0.00;;;;;;;11.47;80.99;99506.25;15708757;28;20068;-50
2023/10/28 08:17:34;;;;;;;0.10;0.10;;;;;;;12.07;78.79;99515.44;15712293;28;20112;-44
2023/10/28 08:25:10;;;;;;;0.03;0.03;;;;;;;11.90;80.32;99515.50;15712915;28;20041;-50
2023/10/28 08:32:48;;;;;;;0.08;0.08;;;;;;;12.14;77.74;99526.84;15707887;28;20075;-45
2023/10/28 08:40:21;;;;;;;0.38;0.38;;;;;;;11.70;80.28;99532.94;15723217;28;20335;-45
2023/10/28 08:47:58;;;;;;;0.65;0.65;;;;;;;11.81;80.36;99549.22;15716019;28;20088;-48
2023/10/28 08:55:35;;;;;;;0.10;0.10;;;;;;;11.55;80.80;99559.59;15712747;28;20040;-49
2023/10/28 09:03:11;;;;;;;0.10;0.10;;;;;;;12.13;79.08;99566.38;15725660;28;20044;-46
2023/10/28 09:10:45;;;;;;;0.00;0.00;;;;;;;11.75;79.51;99580.59;15722731;28;20040;-46
2023/10/28 09:18:24;;;;;;;0.10;0.10;;;;;;;12.48;78.13;99592.09;15721024;28;20070;-47
2023/10/28 09:25:57;;;;;;;0.10;0.10;;;;;;;11.61;80.96;99608.84;15723500;28;20568;-48
2023/10/28 09:33:33;;;;;;;1.38;0.50;;;;;;;12.02;79.08;99596.06;15720555;28;20570;-45
2023/10/28 09:41:08;;;;;;;0.10;0.10;;;;;;;12.27;76.10;99604.47;15714183;28;20032;-48
2023/10/28 09:48:48;;;;;;;0.08;0.08;;;;;;;12.62;75.66;99606.78;15730088;28;20045;-44
2023/10/28 09:56:23;;;;;;;3.50;0.43;;;;;;;13.23;73.92;99602.06;15716904;28;20571;-47
2023/10/28 10:04:05;;;;;;;0.30;0.30;;;;;;;14.04;71.29;99603.78;15715485;28;20037;-44
2023/10/28 10:11:42;;;;;;;0.50;0.50;;;;;;;14.52;68.69;99591.91;15731881;28;20076;-47
2023/10/28 10:19:22;;;;;;;0.30;0.30;;;;;;;15.48;63.39;99598.59;15726090;28;20036;-48
2023/10/28 10:26:57;;;;;;;0.22;0.22;;;;;;;15.12;66.99;99589.63;15716128;28;20117;-48
2023/10/28 10:34:37;;;;;;;0.52;0.52;;;;;;;13.73;70.28;99614.34;15729770;28;20513;-47
2023/10/28 10:42:11;;;;;;;0.30;0.30;;;;;;;13.01;71.80;99606.69;15733224;22;20098;-50
2023/10/28 10:49:48;;;;;;;0.45;0.45;;;;;;;13.59;72.14;99620.44;15740693;28;20116;-51
2023/10/28 10:57:23;;;;;;;0.10;0.10;;;;;;;13.44;73.15;99629.22;15742996;28;20048;-52
2023/10/28 11:05:00;;;;;;;0.22;0.22;;;;;;;13.68;70.36;99627.81;15762321;28;20397;-49
2023/10/28 11:12:33;;;;;;;2.30;0.93;;;;;;;13.91;70.01;99628.50;15730028;28;20409;-51
2023/10/28 11:20:10;;;;;;;0.00;0.00;;;;;;;13.39;72.04;99634.56;15721404;28;20040;-51
2023/10/28 11:27:44;;;;;;;0.15;0.15;;;;;;;13.23;72.14;99630.91;15719628;28;20040;-52
2023/10/28 11:35:19;;;;;;;4.70;0.95;;;;;;;13.56;71.66;99605.59;15734210;28;20064;-51
2023/10/28 11:42:52;;;;;;;0.70;0.55;;;;;;;13.49;72.39;99634.66;15727242;28;20036;-53
2023/10/28 11:50:27;;;;;;;0.10;0.10;;;;;;;13.31;72.20;99635.84;15716330;28;20052;-51
2023/10/28 11:58:00;;;;;;;0.00;0.00;;;;;;;13.45;74.11;99637.03;15756802;28;20046;-52
2023/10/28 12:05:35;;;;;;;0.22;0.22;;;;;;;13.17;73.79;99642.69;15755247;28;20083;-49
2023/10/28 12:13:08;;;;;;;1.20;0.47;;;;;;;13.34;73.02;99631.84;15736221;28;20044;-51
2023/10/28 12:20:44;;;;;;;0.00;0.00;;;;;;;12.94;73.63;99598.81;15738654;28;20495;-55
2023/10/28 12:28:22;;;;;;;0.63;0.28;;;;;;;13.22;73.09;99631.97;15748398;28;20530;-51
2023/10/28 12:35:57;;;;;;;0.00;0.00;;;;;;;12.98;76.32;99634.13;15775058;28;20109;-53
2023/10/28 12:43:30;;;;;;;0.30;0.30;;;;;;;13.15;75.42;99628.63;15766515;28;20127;-52
2023/10/28 12:51:05;;;;;;;0.08;0.08;;;;;;;13.45;75.62;99633.53;15769121;28;20048;-51
2023/10/28 12:58:39;;;;;;;0.10;0.10;;;;;;;13.86;76.31;99641.97;15772409;28;20084;-50
2023/10/28 13:06:13;;;;;;;0.20;0.20;;;;;;;13.87;74.60;99632.78;15777731;28;20040;-52
2023/10/28 13:13:47;;;;;;;0.00;0.00;;;;;;;13.83;74.37;99640.59;15763170;28;20040;-49
2023/10/28 13:21:23;;;;;;;;;;;;;;;13.52;77.33;99639.53;15781102;28;20040;-54
2023/10/28 13:28:58;;;;;;;0.00;0.00;;;;;;;13.60;74.75;99624.75;15746790;28;20026;-53
2023/10/28 13:36:32;;;;;;;0.00;0.00;;;;;;;14.13;73.26;99647.25;15734530;28;20072;-53
2023/10/28 13:44:10;;;;;;;0.30;0.20;;;;;;;13.17;75.57;99648.06;15746712;28;20491;-51
2023/10/28 13:51:45;;;;;;;;;;;;;;;13.31;76.30;99654.69;15743890;28;20040;-47
2023/10/28 13:59:18;;;;;;;0.05;0.05;;;;;;;13.00;76.20;99657.03;15762582;28;19932;-50
2023/10/28 14:06:55;;;;;;;0.03;0.03;;;;;;;13.24;76.14;99646.84;15753422;28;20036;-50
2023/10/28 14:14:29;;;;;;;5.38;0.95;;;;;;;13.07;76.98;99656.84;15757121;28;20484;-50
2023/10/28 14:22:04;;;;;;;0.20;0.15;;;;;;;13.60;74.14;99646.34;15765567;28;20040;-50
2023/10/28 14:29:38;;;;;;;0.00;0.00;;;;;;;13.61;75.25;99647.94;15759651;28;20078;-53
2023/10/28 14:37:13;;;;;;;0.00;0.00;;;;;;;13.42;74.87;99647.53;15769339;28;20044;-49
2023/10/28 14:44:49;;;;;;;1.25;0.20;;;;;;;13.51;74.85;99649.50;15770429;28;20048;-51
2023/10/28 14:52:24;;;;;;;2.45;0.80;;;;;;;13.30;75.28;99650.38;15763612;28;20214;-51
2023/10/28 14:59:58;;;;;;;0.00;0.00;;;;;;;13.68;74.39;99654.78;15768398;28;20048;-47
2023/10/28 15:07:33;;;;;;;0.00;0.00;;;;;;;13.12;76.58;99656.91;15752760;28;20136;-51
2023/10/28 15:15:07;;;;;;;0.00;0.00;;;;;;;13.34;75.57;99658.78;15740769;28;20032;-51
2023/10/28 15:22:44;;;;;;;0.00;0.00;;;;;;;13.12;75.96;99656.09;15753434;28;20481;-47
2023/10/28 15:30:17;;;;;;;0.00;0.00;;;;;;;12.60;79.09;99667.34;15739764;28;20070;-48
2023/10/28 15:37:53;;;;;;;4.60;0.65;;;;;;;12.99;77.23;99665.38;15737731;28;20032;-48
2023/10/28 15:45:27;;;;;;;0.57;0.57;;;;;;;12.89;77.90;99663.38;15732956;28;20040;-50
2023/10/28 15:53:01;;;;;;;0.40;0.40;;;;;;;12.04;82.63;99688.06;15733527;28;20102;-48
2023/10/28 16:00:35;;;;;;;0.88;0.52;;;;;;;12.71;79.38;99693.31;15731298;28;20570;-49
2023/10/28 16:08:09;;;;;;;0.00;0.00;;;;;;;12.63;79.73;99688.34;15732862;28;20051;-48
2023/10/28 16:15:43;;;;;;;0.10;0.10;;;;;;;13.30;77.34;99695.41;15735468;28;20060;-47
2023/10/28 16:23:18;;;;;;;2.40;0.52;;;;;;;13.41;76.88;99687.13;15734566;28;20215;-48
2023/10/28 16:30:54;;;;;;;0.32;0.32;;;;;;;13.35;77.28;99681.97;15737707;28;20651;-47
2023/10/28 16:38:29;;;;;;;0.00;0.00;;;;;;;13.21;77.83;99693.13;15739139;28;20135;-48
2023/10/28 16:46:04;;;;;;;0.30;0.20;;;;;;;13.26;77.32;99701.28;15792894;22;20032;-47
2023/10/28 16:53:39;;;;;;;0.43;0.43;;;;;;;13.08;78.23;99717.75;15773452;28;20139;-47
2023/10/28 17:01:13;;;;;;;1.35;0.43;;;;;;;13.24;77.61;99730.38;15782164;28;20041;-50
2023/10/28 17:08:47;;;;;;;0.00;0.00;;;;;;;13.12;77.92;99718.06;15792334;28;20081;-49
2023/10/28 17:16:21;;;;;;;13.63;2.55;;;;;;;12.61;80.71;99737.06;15740207;28;20044;-45
2023/10/28 17:23:56;;;;;;;0.55;0.28;;;;;;;13.01;79.25;99734.13;15779450;28;20059;-52
2023/10/28 17:31:29;;;;;;;0.10;0.10;;;;;;;13.12;78.31;99726.97;15784313;28;20584;-49
2023/10/28 17:39:04;;;;;;;0.20;0.20;;;;;;;13.04;78.45;99735.47;15783176;28;20050;-49
2023/10/28 17:46:37;;;;;;;0.05;0.05;;;;;;;12.79;79.42;99754.81;15792908;28;20124;-48
2023/10/28 17:54:12;;;;;;;0.25;0.10;;;;;;;12.42;80.23;99741.13;15753738;28;20047;-49
2023/10/28 18:01:45;;;;;;;1.15;0.22;;;;;;;12.43;80.45;99756.19;15791588;28;20446;-46
2023/10/28 18:09:20;;;;;;;0.00;0.00;;;;;;;12.61;79.73;99753.22;15765979;28;20089;-47
2023/10/28 18:16:54;;;;;;;0.00;0.00;;;;;;;12.48;80.08;99751.69;15774816;28;20115;-49
2023/10/28 18:24:28;;;;;;;;;;;;;;;12.84;79.10;99744.13;15744709;28;20045;-46
2023/10/28 18:32:02;;;;;;;0.32;0.32;;;;;;;12.95;78.26;99737.78;15776556;28;19952;-48
2023/10/28 18:39:36;;;;;;;;;;;;;;;12.30;82.09;99760.03;15771151;28;20586;-49
2023/10/28 18:47:09;;;;;;;0.85;0.65;;;;;;;12.48;81.67;99753.56;15764333;28;20395;-49
2023/10/28 18:54:44;;;;;;;0.70;0.60;;;;;;;12.66;80.60;99756.00;15749664;28;20102;-47
2023/10/28 19:02:18;;;;;;;0.00;0.00;;;;;;;12.95;79.36;99751.25;15745477;28;20060;-49
2023/10/28 19:09:53;;;;;;;0.00;0.00;;;;;;;12.90;78.70;99763.84;15735777;28;20555;-51
2023/10/28 19:17:28;;;;;;;0.45;0.10;;;;;;;12.84;79.04;99762.97;15755307;28;20372;-48
2023/10/28 19:25:02;;;;;;;0.28;0.17;;;;;;;12.47;79.95;99776.16;15757927;28;20070;-50
2023/10/28 19:32:36;;;;;;;0.00;0.00;;;;;;;12.34;79.54;99779.19;15764809;28;20076;-48
2023/10/28 19:40:13;;;;;;;;;;;;;;;12.23;80.15;99789.81;15798489;28;20093;-48
2023/10/28 19:47:47;;;;;;;0.75;0.75;;;;;;;12.42;78.91;99792.25;15760621;28;19931;-49
2023/10/28 19:55:22;;;;;;;0.00;0.00;;;;;;;12.45;77.07;99794.44;15774684;28;20032;-47
2023/10/28 20:02:56;;;;;;;0.00;0.00;;;;;;;12.23;76.06;99797.88;15746966;28;20085;-48
2023/10/28 20:10:31;;;;;;;0.00;0.00;;;;;;;11.98;76.38;99794.72;15792228;28;20420;-50
2023/10/28 20:18:05;;;;;;;0.00;0.00;;;;;;;12.04;77.62;99798.34;15781030;28;20075;-46
2023/10/28 20:25:40;;;;;;;0.00;0.00;;;;;;;11.94;77.52;99804.38;15764699;28;20044;-49
2023/10/28 20:33:14;;;;;;;2.13;0.30;;;;;;;11.51;78.54;99813.72;15769508;28;20514;-47
2023/10/28 20:40:50;;;;;;;0.65;0.28;;;;;;;11.68;76.31;99821.88;15783102;28;20048;-49
2023/10/28 20:48:24;;;;;;;1.95;1.20;;;;;;;11.64;77.12;99820.72;15781587;28;20059;-49
2023/10/28 20:55:59;;;;;;;0.10;0.10;;;;;;;11.52;77.59;99828.81;15799526;28;20048;-47
2023/10/28 21:03:33;;;;;;;0.00;0.00;;;;;;;11.20;78.85;99840.00;15769735;28;20055;-50
2023/10/28 21:11:12;;;;;;;0.98;0.52;;;;;;;11.20;78.68;99845.38;15776632;28;20489;-47
2023/10/28 21:18:45;;;;;;;0.35;0.30;;;;;;;10.59;81.47;99853.91;15749402;28;20395;-50
2023/10/28 21:26:20;;;;;;;1.00;0.90;;;;;;;10.92;80.31;99838.03;15788043;28;20040;-48
2023/10/28 21:33:53;;;;;;;0.20;0.20;;;;;;;10.82;79.93;99853.94;15774780;28;20093;-46
2023/10/28 21:41:28;;;;;;;0.10;0.10;;;;;;;10.28;81.67;99849.66;15786702;28;20059;-48
2023/10/28 21:49:01;;;;;;;0.93;0.63;;;;;;;10.78;79.52;99841.22;15778277;28;20459;-49
2023/10/28 21:56:36;;;;;;;0.77;0.57;;;;;;;10.80;79.21;99829.16;15766546;28;20032;-49
2023/10/28 22:04:11;;;;;;;4.85;2.00;;;;;;;10.91;78.45;99830.19;15778494;28;20079;-47
2023/10/28 22:11:47;;;;;;;0.00;0.00;;;;;;;11.15;78.05;99825.66;15765088;28;20143;-48
2023/10/28 22:19:21;;;;;;;0.03;0.03;;;;;;;11.03;78.21;99825.66;15762582;28;20127;-48
2023/10/28 22:26:56;;;;;;;0.40;0.40;;;;;;;11.02;78.84;99824.03;15777454;28;20082;-47
2023/10/28 22:34:29;;;;;;;1.23;0.60;;;;;;;11.01;78.70;99835.81;15762805;28;20087;-50
2023/10/28 22:42:05;;;;;;;1.10;0.93;;;;;;;10.91;78.12;99833.72;15799183;28;20139;-47
2023/10/28 22:49:38;;;;;;;0.80;0.75;;;;;;;10.84;78.82;99841.06;15716029;23;20049;-73
2023/10/28 22:57:13;;;;;;;0.85;0.85;;;;;;;10.07;80.28;99843.75;15728453;28;20449;-73
2023/10/28 23:04:46;;;;;;;0.00;0.00;;;;;;;10.46;80.12;99831.59;15655147;22;20412;-46
2023/10/28 23:12:22;;;;;;;;;;;;;;;10.17;81.18;99830.59;15670613;28;20527;-51
2023/10/28 23:19:55;;;;;;;0.17;0.10;;;;;;;10.16;81.29;99838.84;15680979;28;20361;-54
2023/10/28 23:27:31;;;;;;;0.50;0.50;;;;;;;10.45;80.17;99834.53;15694403;28;20485;-52
2023/10/28 23:35:05;;;;;;;0.00;0.00;;;;;;;10.54;78.65;99841.19;15698986;28;20094;-56
2023/10/28 23:42:40;;;;;;;0.10;0.10;;;;;;;10.08;80.46;99840.03;15704811;28;20115;-51
2023/10/28 23:50:14;;;;;;;0.10;0.10;;;;;;;9.74;82.28;99840.69;15714098;28;20155;-51
2023/10/28 23:57:50;;;;;;;0.00;0.00;;;;;;;9.95;80.32;99827.63;15725333;28;20121;-53
